createdAt,value
2019-06-26T00:02:20.281Z,10.03
2019-06-26T00:04:47.657Z,8.40
2019-06-26T00:07:15.002Z,9.13
2019-06-26T00:09:42.399Z,9.10
2019-06-26T00:12:09.840Z,10.07
2019-06-26T00:14:38.822Z,10.10
2019-06-26T00:17:06.512Z,10.60
2019-06-26T00:19:33.924Z,10.63
2019-06-26T00:22:01.303Z,11.33
2019-06-26T00:24:28.700Z,11.20
2019-06-26T00:26:56.087Z,10.77
2019-06-26T00:29:23.508Z,12.53
2019-06-26T00:31:51.111Z,11.20
2019-06-26T00:34:18.486Z,11.93
2019-06-26T00:36:45.897Z,11.53
2019-06-26T00:39:13.285Z,11.77
2019-06-26T00:41:40.655Z,10.37
2019-06-26T00:44:08.023Z,11.03
2019-06-26T00:46:35.532Z,11.43
2019-06-26T00:49:03.136Z,11.70
2019-06-26T00:51:30.531Z,11.17
2019-06-26T00:53:58.043Z,11.73
2019-06-26T00:56:25.399Z,11.40
2019-06-26T00:58:52.826Z,11.00
2019-06-26T01:01:20.224Z,10.63
2019-06-26T01:03:49.954Z,10.70
2019-06-26T01:06:35.761Z,11.53
2019-06-26T01:09:04.466Z,10.53
2019-06-26T01:11:31.844Z,11.10
2019-06-26T01:13:59.254Z,10.47
2019-06-26T01:16:26.665Z,9.87
2019-06-26T01:18:53.999Z,9.90
2019-06-26T01:21:21.563Z,9.87
2019-06-26T01:23:48.929Z,10.40
2019-06-26T01:26:16.282Z,10.77
2019-06-26T01:28:43.691Z,10.20
2019-06-26T01:31:11.148Z,10.50
2019-06-26T01:33:38.494Z,10.87
2019-06-26T01:36:05.880Z,10.87
2019-06-26T01:38:33.293Z,11.47
2019-06-26T01:41:00.686Z,11.20
2019-06-26T01:43:28.079Z,10.73
2019-06-26T01:45:56.148Z,10.40
2019-06-26T01:48:23.545Z,10.67
2019-06-26T01:50:50.903Z,10.30
2019-06-26T01:53:18.302Z,11.30
2019-06-26T01:55:46.010Z,11.13
2019-06-26T01:58:13.446Z,11.60
2019-06-26T02:00:40.796Z,10.47
2019-06-26T02:03:08.174Z,11.63
2019-06-26T02:05:35.686Z,11.73
2019-06-26T02:08:03.079Z,11.50
2019-06-26T02:10:30.445Z,12.33
2019-06-26T02:12:57.835Z,12.03
2019-06-26T02:15:25.234Z,12.43
2019-06-26T02:17:52.638Z,11.57
2019-06-26T02:20:20.076Z,11.90
2019-06-26T02:22:49.673Z,11.73
2019-06-26T02:25:16.849Z,12.03
2019-06-26T02:27:44.366Z,12.17
2019-06-26T02:30:12.105Z,11.90
2019-06-26T02:32:39.491Z,11.93
2019-06-26T02:35:09.974Z,12.17
2019-06-26T02:37:37.005Z,14.23
2019-06-26T02:40:05.173Z,14.53
2019-06-26T02:42:32.563Z,14.77
2019-06-26T02:44:59.915Z,15.17
2019-06-26T02:47:27.333Z,13.90
2019-06-26T02:49:54.861Z,13.73
2019-06-26T02:52:22.281Z,12.77
2019-06-26T02:54:50.105Z,12.20
2019-06-26T02:57:17.797Z,12.90
2019-06-26T02:59:45.191Z,11.20
2019-06-26T03:02:12.656Z,11.93
2019-06-26T03:04:40.041Z,11.63
2019-06-26T03:07:07.535Z,12.90
2019-06-26T03:09:34.895Z,12.03
2019-06-26T03:12:02.268Z,11.77
2019-06-26T03:14:29.694Z,12.27
2019-06-26T03:16:57.074Z,11.43
2019-06-26T03:19:24.469Z,11.80
2019-06-26T03:21:51.955Z,11.77
2019-06-26T03:24:19.356Z,12.10
2019-06-26T03:26:46.750Z,11.37
2019-06-26T03:29:14.129Z,11.90
2019-06-26T03:31:41.527Z,10.93
2019-06-26T03:34:08.915Z,12.07
2019-06-26T03:36:36.264Z,12.13
2019-06-26T03:39:05.426Z,11.07
2019-06-26T03:41:32.932Z,10.97
2019-06-26T03:44:00.277Z,10.87
2019-06-26T03:46:27.730Z,11.43
2019-06-26T03:48:55.145Z,10.97
2019-06-26T03:51:22.496Z,11.50
2019-06-26T03:53:49.916Z,11.37
2019-06-26T03:56:17.292Z,11.30
2019-06-26T03:58:44.737Z,11.10
2019-06-26T04:01:12.165Z,10.90
2019-06-26T04:03:39.585Z,10.97
2019-06-26T04:06:06.955Z,10.87
2019-06-26T04:08:34.335Z,11.73
2019-06-26T04:11:01.718Z,11.87
2019-06-26T04:13:29.078Z,11.50
2019-06-26T04:15:56.496Z,10.80
2019-06-26T04:18:23.893Z,10.70
2019-06-26T04:20:51.404Z,11.60
2019-06-26T04:23:18.857Z,12.10
2019-06-26T04:25:46.261Z,12.00
2019-06-26T04:28:13.672Z,13.00
2019-06-26T04:30:41.207Z,13.10
2019-06-26T04:33:08.651Z,12.90
2019-06-26T04:35:36.103Z,12.03
2019-06-26T04:38:03.783Z,12.83
2019-06-26T04:40:31.134Z,11.60
2019-06-26T04:42:58.534Z,10.60
2019-06-26T04:45:25.884Z,11.90
2019-06-26T04:47:53.406Z,12.63
2019-06-26T04:50:21.126Z,12.50
2019-06-26T04:52:48.484Z,12.03
2019-06-26T04:55:15.996Z,11.63
2019-06-26T04:57:43.426Z,12.37
2019-06-26T05:00:11.471Z,12.17
2019-06-26T05:02:38.953Z,11.83
2019-06-26T05:05:08.165Z,12.13
2019-06-26T05:07:35.562Z,13.10
2019-06-26T05:10:03.311Z,12.13
2019-06-26T05:12:30.736Z,12.27
2019-06-26T05:14:58.176Z,12.77
2019-06-26T05:17:25.612Z,11.70
2019-06-26T05:19:53.004Z,11.23
2019-06-26T05:22:20.544Z,12.00
2019-06-26T05:24:47.935Z,11.60
2019-06-26T05:27:15.333Z,11.27
2019-06-26T05:29:42.720Z,11.77
2019-06-26T05:32:10.104Z,11.30
2019-06-26T05:34:37.570Z,11.33
2019-06-26T05:37:05.039Z,11.53
2019-06-26T05:39:32.459Z,11.87
2019-06-26T05:41:59.979Z,12.37
2019-06-26T05:44:27.409Z,11.57
2019-06-26T05:46:54.904Z,11.70
2019-06-26T05:49:22.476Z,12.20
2019-06-26T05:51:49.890Z,12.80
2019-06-26T05:54:17.305Z,11.83
2019-06-26T05:56:45.579Z,13.90
2019-06-26T05:59:13.112Z,11.13
2019-06-26T06:01:40.588Z,10.87
2019-06-26T06:04:08.009Z,11.10
2019-06-26T06:06:41.813Z,11.43
2019-06-26T06:09:05.891Z,11.20
2019-06-26T06:11:33.397Z,11.50
2019-06-26T06:14:00.806Z,11.03
2019-06-26T06:16:28.224Z,11.60
2019-06-26T06:18:55.620Z,10.50
2019-06-26T06:21:23.048Z,10.63
2019-06-26T06:23:50.451Z,10.73
2019-06-26T06:26:17.853Z,11.47
2019-06-26T06:28:45.263Z,11.17
2019-06-26T06:31:12.690Z,10.70
2019-06-26T06:33:40.093Z,11.37
2019-06-26T06:36:09.782Z,11.37
2019-06-26T06:38:36.910Z,9.63
2019-06-26T06:41:04.371Z,10.33
2019-06-26T06:43:31.782Z,9.93
2019-06-26T06:45:59.206Z,10.07
2019-06-26T06:48:26.621Z,10.50
2019-06-26T06:50:54.232Z,10.40
2019-06-26T06:53:21.620Z,10.97
2019-06-26T06:55:49.061Z,11.33
2019-06-26T06:58:16.466Z,11.67
2019-06-26T07:00:43.988Z,11.60
2019-06-26T07:03:11.492Z,11.53
2019-06-26T07:05:38.903Z,11.50
2019-06-26T07:08:06.294Z,12.17
2019-06-26T07:10:33.649Z,11.13
2019-06-26T07:13:01.052Z,11.57
2019-06-26T07:15:28.425Z,11.87
2019-06-26T07:17:55.936Z,11.47
2019-06-26T07:20:23.328Z,10.53
2019-06-26T07:22:50.714Z,11.17
2019-06-26T07:25:18.131Z,10.30
2019-06-26T07:27:45.508Z,12.03
2019-06-26T07:30:13.253Z,13.97
2019-06-26T07:32:40.668Z,12.10
2019-06-26T07:35:08.150Z,11.07
2019-06-26T07:37:35.519Z,11.33
2019-06-26T07:40:03.644Z,12.87
2019-06-26T07:42:31.046Z,9.80
2019-06-26T07:44:58.457Z,9.90
2019-06-26T07:47:41.964Z,12.77
2019-06-26T07:49:55.255Z,9.97
2019-06-26T07:52:22.725Z,10.23
2019-06-26T07:54:50.129Z,10.83
2019-06-26T07:57:17.541Z,9.17
2019-06-26T07:59:44.954Z,11.47
2019-06-26T08:02:12.371Z,11.00
2019-06-26T08:04:39.803Z,10.93
2019-06-26T08:07:07.223Z,11.40
2019-06-26T08:09:34.595Z,13.40
2019-06-26T08:12:02.065Z,10.30
2019-06-26T08:14:29.458Z,10.93
2019-06-26T08:16:56.827Z,14.63
2019-06-26T08:19:24.254Z,14.03
2019-06-26T08:21:51.639Z,11.13
2019-06-26T08:24:19.060Z,10.63
2019-06-26T08:26:46.395Z,9.93
2019-06-26T08:29:13.868Z,11.23
2019-06-26T08:31:41.285Z,9.87
2019-06-26T08:34:08.760Z,10.07
2019-06-26T08:36:36.157Z,11.63
2019-06-26T08:39:05.296Z,9.50
2019-06-26T08:41:32.682Z,14.93
2019-06-26T08:44:00.126Z,12.17
2019-06-26T08:46:27.457Z,9.47
2019-06-26T08:48:54.852Z,10.23
2019-06-26T08:51:22.620Z,9.83
2019-06-26T08:53:49.995Z,10.17
2019-06-26T08:56:17.386Z,11.27
2019-06-26T08:58:44.785Z,9.37
2019-06-26T09:01:12.141Z,10.10
2019-06-26T09:03:42.005Z,9.87
2019-06-26T09:06:08.834Z,12.33
2019-06-26T09:08:36.312Z,13.50
2019-06-26T09:11:03.855Z,13.83
2019-06-26T09:13:31.286Z,12.23
2019-06-26T09:15:58.732Z,13.40
2019-06-26T09:18:35.497Z,10.97
2019-06-26T09:20:55.531Z,10.77
2019-06-26T09:23:23.031Z,9.87
2019-06-26T09:25:50.399Z,9.80
2019-06-26T09:28:17.830Z,9.47
2019-06-26T09:30:45.251Z,10.30
2019-06-26T09:33:12.686Z,10.50
2019-06-26T09:35:40.023Z,10.70
2019-06-26T09:38:07.474Z,9.77
2019-06-26T09:40:34.874Z,9.77
2019-06-26T09:43:02.280Z,12.67
2019-06-26T09:45:29.695Z,10.03
2019-06-26T09:47:57.129Z,9.87
2019-06-26T09:50:25.045Z,10.17
2019-06-26T09:52:52.512Z,10.20
2019-06-26T09:55:19.988Z,8.90
2019-06-26T09:57:47.437Z,9.17
2019-06-26T10:00:16.397Z,8.30
2019-06-26T10:02:43.785Z,8.90
2019-06-26T10:05:11.735Z,8.90
2019-06-26T10:07:39.122Z,8.97
2019-06-26T10:10:06.959Z,9.13
2019-06-26T10:12:34.453Z,8.33
2019-06-26T10:15:02.017Z,8.87
2019-06-26T10:17:29.468Z,8.67
2019-06-26T10:19:56.948Z,9.17
2019-06-26T10:22:24.329Z,8.50
2019-06-26T10:24:51.942Z,8.50
2019-06-26T10:27:19.305Z,9.00
2019-06-26T10:29:46.728Z,9.83
2019-06-26T10:32:14.146Z,8.53
2019-06-26T10:34:41.608Z,8.17
2019-06-26T10:37:08.988Z,8.50
2019-06-26T10:39:36.407Z,8.10
2019-06-26T10:42:03.982Z,9.00
2019-06-26T10:44:31.549Z,8.37
2019-06-26T10:46:58.979Z,7.87
2019-06-26T10:49:27.914Z,8.97
2019-06-26T10:51:55.642Z,8.83
2019-06-26T10:54:23.049Z,8.30
2019-06-26T10:56:50.389Z,7.90
2019-06-26T10:59:17.781Z,9.53
2019-06-26T11:01:45.260Z,9.40
2019-06-26T11:04:12.676Z,8.90
2019-06-26T11:06:40.173Z,8.27
2019-06-26T11:09:07.777Z,7.60
2019-06-26T11:11:35.435Z,7.00
2019-06-26T11:14:03.100Z,7.20
2019-06-26T11:16:30.600Z,8.47
2019-06-26T11:18:58.120Z,8.20
2019-06-26T11:21:25.482Z,7.60
2019-06-26T11:23:52.872Z,7.53
2019-06-26T11:26:20.296Z,7.27
2019-06-26T11:28:47.742Z,7.20
2019-06-26T11:31:15.276Z,8.00
2019-06-26T11:33:42.789Z,8.23
2019-06-26T11:36:10.254Z,7.47
2019-06-26T11:38:37.625Z,8.03
2019-06-26T11:41:05.054Z,8.50
2019-06-26T11:43:32.547Z,8.10
2019-06-26T11:46:00.026Z,7.53
2019-06-26T11:48:27.433Z,8.13
2019-06-26T11:50:55.001Z,9.13
2019-06-26T11:53:22.451Z,8.20
2019-06-26T11:55:49.823Z,8.23
2019-06-26T11:58:17.239Z,7.87
2019-06-26T12:00:44.656Z,8.40
2019-06-26T12:03:13.330Z,7.40
2019-06-26T12:05:41.076Z,8.23
2019-06-26T12:08:08.627Z,8.07
2019-06-26T12:10:36.002Z,7.70
2019-06-26T12:13:04.387Z,7.90
2019-06-26T12:15:32.096Z,9.23
2019-06-26T12:17:59.629Z,7.97
2019-06-26T12:20:27.052Z,8.10
2019-06-26T12:22:54.512Z,8.63
2019-06-26T12:25:22.117Z,8.00
2019-06-26T12:27:49.520Z,6.97
2019-06-26T12:30:16.999Z,6.87
2019-06-26T12:33:01.578Z,7.60
2019-06-26T12:35:14.597Z,6.73
2019-06-26T12:37:42.112Z,7.50
2019-06-26T12:40:09.894Z,7.27
2019-06-26T12:42:37.332Z,7.67
2019-06-26T12:45:05.591Z,7.80
2019-06-26T12:47:33.114Z,7.43
2019-06-26T12:50:01.037Z,7.93
2019-06-26T12:52:28.529Z,7.63
2019-06-26T12:54:55.922Z,7.43
2019-06-26T12:57:23.327Z,7.50
2019-06-26T12:59:57.416Z,7.57
2019-06-26T13:02:20.089Z,7.63
2019-06-26T13:04:47.523Z,7.07
2019-06-26T13:07:14.910Z,7.40
2019-06-26T13:09:42.369Z,6.87
2019-06-26T13:12:09.830Z,7.37
2019-06-26T13:14:37.261Z,7.23
2019-06-26T13:17:04.761Z,7.47
2019-06-26T13:19:32.201Z,7.23
2019-06-26T13:21:59.805Z,7.30
2019-06-26T13:24:27.243Z,6.37
2019-06-26T13:26:54.784Z,7.70
2019-06-26T13:29:22.310Z,7.50
2019-06-26T13:31:49.855Z,7.10
2019-06-26T13:34:17.242Z,6.80
2019-06-26T13:36:44.642Z,6.93
2019-06-26T13:39:11.994Z,7.00
2019-06-26T13:41:39.466Z,7.20
2019-06-26T13:44:06.885Z,6.70
2019-06-26T13:46:34.247Z,6.30
2019-06-26T13:49:01.734Z,7.00
2019-06-26T13:51:29.242Z,7.13
2019-06-26T13:53:56.576Z,6.33
2019-06-26T13:56:24.003Z,7.03
2019-06-26T13:58:51.472Z,5.43
2019-06-26T14:01:18.856Z,7.10
2019-06-26T14:03:46.266Z,6.53
2019-06-26T14:06:13.674Z,6.97
2019-06-26T14:08:41.049Z,6.77
2019-06-26T14:11:08.452Z,6.50
2019-06-26T14:13:35.922Z,6.70
2019-06-26T14:16:03.593Z,6.70
2019-06-26T14:18:30.995Z,6.40
2019-06-26T14:20:58.451Z,6.97
2019-06-26T14:23:25.814Z,6.87
2019-06-26T14:25:53.288Z,6.30
2019-06-26T14:28:20.669Z,5.73
2019-06-26T14:30:48.092Z,7.07
2019-06-26T14:33:15.528Z,7.43
2019-06-26T14:35:42.973Z,7.67
2019-06-26T14:38:10.642Z,7.73
2019-06-26T14:40:38.050Z,8.37
2019-06-26T14:43:05.467Z,7.13
2019-06-26T14:45:32.880Z,8.57
2019-06-26T14:48:00.310Z,7.73
2019-06-26T14:50:27.777Z,6.67
2019-06-26T14:52:55.404Z,6.67
2019-06-26T14:55:22.828Z,7.13
2019-06-26T14:57:50.292Z,6.57
2019-06-26T15:00:17.799Z,7.33
2019-06-26T15:02:45.372Z,7.57
2019-06-26T15:05:13.641Z,6.47
2019-06-26T15:07:41.040Z,7.30
2019-06-26T15:10:09.000Z,7.27
2019-06-26T15:12:36.520Z,7.50
2019-06-26T15:15:04.383Z,7.57
2019-06-26T15:17:31.791Z,7.23
2019-06-26T15:19:59.215Z,7.40
2019-06-26T15:22:26.608Z,7.37
2019-06-26T15:24:54.062Z,7.50
2019-06-26T15:27:21.492Z,7.20
2019-06-26T15:29:48.960Z,7.23
2019-06-26T15:32:16.390Z,7.30
2019-06-26T15:34:43.871Z,6.80
2019-06-26T15:37:11.312Z,8.93
2019-06-26T15:39:38.734Z,7.90
2019-06-26T15:42:06.178Z,6.77
2019-06-26T15:44:33.635Z,7.07
2019-06-26T15:47:01.051Z,7.27
2019-06-26T15:49:28.456Z,7.57
2019-06-26T15:51:56.130Z,7.77
2019-06-26T15:54:23.526Z,6.97
2019-06-26T15:56:50.986Z,7.40
2019-06-26T15:59:18.436Z,6.87
2019-06-26T16:01:46.003Z,8.07
2019-06-26T16:04:13.385Z,7.53
2019-06-26T16:06:40.815Z,7.07
2019-06-26T16:09:08.222Z,6.73
2019-06-26T16:11:35.655Z,6.87
2019-06-26T16:14:03.449Z,7.30
2019-06-26T16:16:31.940Z,7.10
2019-06-26T16:19:04.315Z,7.70
2019-06-26T16:21:31.713Z,7.43
2019-06-26T16:23:59.289Z,7.17
2019-06-26T16:26:26.731Z,7.83
2019-06-26T16:28:54.148Z,8.37
2019-06-26T16:31:21.487Z,8.53
2019-06-26T16:33:48.895Z,7.93
2019-06-26T16:36:16.325Z,7.83
2019-06-26T16:38:43.732Z,7.43
2019-06-26T16:41:11.170Z,7.13
2019-06-26T16:43:38.560Z,7.70
2019-06-26T16:46:05.999Z,8.63
2019-06-26T16:48:33.435Z,8.97
2019-06-26T16:51:00.884Z,8.23
2019-06-26T16:53:28.318Z,7.93
2019-06-26T16:55:55.756Z,9.13
2019-06-26T16:58:23.486Z,8.47
2019-06-26T17:00:50.874Z,8.67
2019-06-26T17:03:18.316Z,8.50
2019-06-26T17:05:45.728Z,8.73
2019-06-26T17:08:13.190Z,8.13
2019-06-26T17:10:40.589Z,8.53
2019-06-26T17:13:07.989Z,9.10
2019-06-26T17:15:35.382Z,8.40
2019-06-26T17:18:02.825Z,8.47
2019-06-26T17:20:30.429Z,8.40
2019-06-26T17:23:05.809Z,8.80
2019-06-26T17:25:27.151Z,8.97
2019-06-26T17:27:54.656Z,9.63
2019-06-26T17:30:22.190Z,9.07
2019-06-26T17:32:49.639Z,9.60
2019-06-26T17:35:17.167Z,9.23
2019-06-26T17:37:44.626Z,9.83
2019-06-26T17:40:13.389Z,9.60
2019-06-26T17:42:40.873Z,9.60
2019-06-26T17:45:08.446Z,10.70
2019-06-26T17:47:35.845Z,10.43
2019-06-26T17:50:04.527Z,9.70
2019-06-26T17:52:35.644Z,9.67
2019-06-26T17:55:01.504Z,10.00
2019-06-26T17:57:28.928Z,10.40
2019-06-26T17:59:56.398Z,10.63
2019-06-26T18:02:23.829Z,10.63
2019-06-26T18:04:51.216Z,11.00
2019-06-26T18:07:18.648Z,10.67
2019-06-26T18:09:46.055Z,10.73
2019-06-26T18:12:13.455Z,10.13
2019-06-26T18:14:43.186Z,9.97
2019-06-26T18:17:21.501Z,10.50
2019-06-26T18:19:39.626Z,9.70
2019-06-26T18:22:07.028Z,10.27
2019-06-26T18:24:34.384Z,9.93
2019-06-26T18:27:01.806Z,10.60
2019-06-26T18:29:29.214Z,11.10
2019-06-26T18:31:56.574Z,11.07
2019-06-26T18:34:23.983Z,10.33
2019-06-26T18:36:51.375Z,10.80
2019-06-26T18:39:18.833Z,9.73
2019-06-26T18:41:46.711Z,11.13
2019-06-26T18:44:14.107Z,10.13
2019-06-26T18:46:41.453Z,10.30
2019-06-26T18:49:09.040Z,10.23
2019-06-26T18:51:36.459Z,10.03
2019-06-26T18:54:04.367Z,10.40
2019-06-26T18:56:31.882Z,11.20
2019-06-26T18:58:59.273Z,10.33
2019-06-26T19:01:26.673Z,11.93
2019-06-26T19:03:54.258Z,11.30
2019-06-26T19:06:21.753Z,12.30
2019-06-26T19:08:49.152Z,12.33
2019-06-26T19:11:16.571Z,11.80
2019-06-26T19:13:43.948Z,12.73
2019-06-26T19:16:11.405Z,20.77
2019-06-26T19:18:38.795Z,20.80
2019-06-26T19:21:06.130Z,16.90
2019-06-26T19:23:33.543Z,18.87
2019-06-26T19:26:00.930Z,13.83
2019-06-26T19:28:28.402Z,11.63
2019-06-26T19:30:55.806Z,11.67
2019-06-26T19:33:23.199Z,10.93
2019-06-26T19:35:50.561Z,11.17
2019-06-26T19:38:17.949Z,11.43
2019-06-26T19:40:45.311Z,11.27
2019-06-26T19:43:12.745Z,10.73
2019-06-26T19:45:40.190Z,10.03
2019-06-26T19:48:07.690Z,9.50
2019-06-26T19:50:35.435Z,8.60
2019-06-26T19:53:02.927Z,9.80
2019-06-26T19:55:30.392Z,9.00
2019-06-26T19:57:57.766Z,9.03
2019-06-26T20:00:25.426Z,8.63
2019-06-26T20:02:52.859Z,9.43
2019-06-26T20:05:20.526Z,9.17
2019-06-26T20:07:47.943Z,9.23
2019-06-26T20:10:15.722Z,9.10
2019-06-26T20:12:43.140Z,9.20
2019-06-26T20:15:10.784Z,9.63
2019-06-26T20:17:38.227Z,9.73
2019-06-26T20:20:05.904Z,8.73
2019-06-26T20:22:33.325Z,9.30
2019-06-26T20:25:00.724Z,9.00
2019-06-26T20:27:28.127Z,9.03
2019-06-26T20:29:55.505Z,9.40
2019-06-26T20:32:24.181Z,9.23
2019-06-26T20:34:51.713Z,9.47
2019-06-26T20:37:19.132Z,10.10
2019-06-26T20:39:46.501Z,10.83
2019-06-26T20:42:13.945Z,14.43
2019-06-26T20:44:41.339Z,10.97
2019-06-26T20:47:08.739Z,11.73
2019-06-26T20:49:51.970Z,12.30
2019-06-26T20:52:05.512Z,12.90
2019-06-26T20:54:33.014Z,12.07
2019-06-26T20:57:00.889Z,10.67
2019-06-26T20:59:28.280Z,9.77
2019-06-26T21:01:55.672Z,9.17
2019-06-26T21:04:23.055Z,8.70
2019-06-26T21:06:50.467Z,10.00
2019-06-26T21:09:18.146Z,9.60
2019-06-26T21:11:45.574Z,9.07
2019-06-26T21:14:13.112Z,10.50
2019-06-26T21:16:40.465Z,11.03
2019-06-26T21:19:07.926Z,11.30
2019-06-26T21:21:35.292Z,11.70
2019-06-26T21:24:02.678Z,12.87
2019-06-26T21:26:30.092Z,11.87
2019-06-26T21:29:00.692Z,11.17
2019-06-26T21:31:26.876Z,11.20
2019-06-26T21:33:54.269Z,11.63
2019-06-26T21:36:21.631Z,12.27
2019-06-26T21:38:49.020Z,11.60
2019-06-26T21:41:16.515Z,12.33
2019-06-26T21:43:43.910Z,12.63
2019-06-26T21:46:11.335Z,11.93
2019-06-26T21:48:38.735Z,12.63
2019-06-26T21:51:06.237Z,11.90
2019-06-26T21:53:33.826Z,12.33
2019-06-26T21:56:01.221Z,13.57
2019-06-26T21:58:28.619Z,12.63
2019-06-26T22:00:56.305Z,12.67
2019-06-26T22:03:23.958Z,31.83
2019-06-26T22:05:51.369Z,22.47
2019-06-26T22:08:18.796Z,32.00
2019-06-26T22:10:46.264Z,48.10
2019-06-26T22:13:13.709Z,44.27
2019-06-26T22:15:41.113Z,58.77
2019-06-26T22:18:08.629Z,31.10
2019-06-26T22:20:35.993Z,23.63
2019-06-26T22:23:03.371Z,26.27
2019-06-26T22:25:30.779Z,35.80
2019-06-26T22:27:58.283Z,37.93
2019-06-26T22:30:26.065Z,39.97
2019-06-26T22:32:53.443Z,24.80
2019-06-26T22:35:20.924Z,29.33
2019-06-26T22:37:48.313Z,45.07
2019-06-26T22:40:15.985Z,33.87
2019-06-26T22:42:43.390Z,33.97
2019-06-26T22:45:11.202Z,35.63
2019-06-26T22:47:38.589Z,30.47
2019-06-26T22:50:06.347Z,29.33
2019-06-26T22:52:33.740Z,28.83
2019-06-26T22:55:01.225Z,26.47
2019-06-26T22:57:28.620Z,25.13
2019-06-26T22:59:56.089Z,26.73
2019-06-26T23:02:23.484Z,27.53
2019-06-26T23:04:50.880Z,22.27
2019-06-26T23:07:18.285Z,22.50
2019-06-26T23:09:45.666Z,23.00
2019-06-26T23:12:13.123Z,20.07
2019-06-26T23:14:40.533Z,16.30
2019-06-26T23:17:07.938Z,14.80
2019-06-26T23:19:35.409Z,14.27
2019-06-26T23:22:02.815Z,14.43
2019-06-26T23:24:30.174Z,16.27
2019-06-26T23:26:57.574Z,16.53
2019-06-26T23:29:24.964Z,16.97
2019-06-26T23:31:52.353Z,15.43
2019-06-26T23:34:19.759Z,16.17
2019-06-26T23:36:47.163Z,16.67
2019-06-26T23:39:14.562Z,15.83
2019-06-26T23:41:41.952Z,16.77
2019-06-26T23:44:09.371Z,16.80
2019-06-26T23:46:36.751Z,16.73
2019-06-26T23:49:04.246Z,17.00
2019-06-26T23:51:31.645Z,17.60
2019-06-26T23:53:59.530Z,17.03
2019-06-26T23:56:39.971Z,17.97
2019-06-26T23:58:56.445Z,15.57
